createdAt,value
2023-04-11T00:00:35.169Z,11.35
2023-04-11T00:03:01.927Z,11.77
2023-04-11T00:05:31.202Z,12.80
2023-04-11T00:07:57.895Z,11.00
2023-04-11T00:10:24.959Z,11.23
2023-04-11T00:12:56.462Z,13.77
2023-04-11T00:15:24.493Z,11.68
2023-04-11T00:17:51.243Z,13.53
2023-04-11T00:20:17.909Z,11.57
2023-04-11T00:22:44.594Z,10.50
2023-04-11T00:25:11.246Z,11.30
2023-04-11T00:27:37.816Z,13.55
2023-04-11T00:30:06.708Z,12.07
2023-04-11T00:32:33.605Z,11.93
2023-04-11T00:35:00.244Z,13.38
2023-04-11T00:37:26.765Z,11.57
2023-04-11T00:39:56.144Z,13.50
2023-04-11T00:42:22.869Z,12.27
2023-04-11T00:44:50.792Z,12.93
2023-04-11T00:47:18.313Z,12.70
2023-04-11T00:49:45.753Z,13.70
2023-04-11T00:52:13.684Z,11.02
2023-04-11T00:54:40.595Z,13.13
2023-04-11T00:57:07.883Z,11.80
2023-04-11T00:59:34.748Z,11.98
2023-04-11T01:02:01.906Z,11.70
2023-04-11T01:04:31.387Z,12.88
2023-04-11T01:07:06.170Z,11.50
2023-04-11T01:09:34.761Z,12.48
2023-04-11T01:12:04.216Z,10.82
2023-04-11T01:14:31.108Z,13.23
2023-04-11T01:16:58.285Z,13.13
2023-04-11T01:19:29.381Z,16.17
2023-04-11T01:21:57.830Z,17.13
2023-04-11T01:24:24.983Z,17.90
2023-04-11T01:26:52.025Z,18.25
2023-04-11T01:29:19.294Z,16.73
2023-04-11T01:31:46.430Z,16.80
2023-04-11T01:34:14.922Z,19.10
2023-04-11T01:36:42.730Z,20.38
2023-04-11T01:39:09.813Z,18.02
2023-04-11T01:41:37.284Z,20.85
2023-04-11T01:44:04.762Z,19.83
2023-04-11T01:46:32.001Z,19.98
2023-04-11T01:49:01.071Z,23.65
2023-04-11T01:51:27.760Z,20.42
2023-04-11T01:53:54.706Z,21.50
2023-04-11T01:56:21.845Z,20.27
2023-04-11T01:58:48.662Z,19.33
2023-04-11T02:01:19.729Z,21.45
2023-04-11T02:03:46.583Z,21.60
2023-04-11T02:06:14.727Z,20.80
2023-04-11T02:08:41.300Z,23.83
2023-04-11T02:11:08.286Z,24.27
2023-04-11T02:13:35.612Z,24.20
2023-04-11T02:16:11.610Z,24.17
2023-04-11T02:18:38.272Z,26.10
2023-04-11T02:21:05.935Z,24.50
2023-04-11T02:23:32.896Z,23.13
2023-04-11T02:25:59.622Z,23.95
2023-04-11T02:28:28.025Z,22.05
2023-04-11T02:30:55.730Z,29.10
2023-04-11T02:33:22.865Z,24.30
2023-04-11T02:35:49.462Z,25.55
2023-04-11T02:38:16.052Z,23.77
2023-04-11T02:40:42.649Z,23.63
2023-04-11T02:43:09.253Z,25.13
2023-04-11T02:45:35.958Z,27.53
2023-04-11T02:48:02.792Z,23.88
2023-04-11T02:50:32.143Z,22.95
2023-04-11T02:52:58.824Z,24.65
2023-04-11T02:55:28.018Z,25.55
2023-04-11T02:57:54.579Z,23.50
2023-04-11T03:00:22.054Z,26.75
2023-04-11T03:02:56.445Z,23.30
2023-04-11T03:05:24.542Z,25.10
2023-04-11T03:07:53.120Z,23.00
2023-04-11T03:10:20.109Z,23.37
2023-04-11T03:12:46.703Z,23.08
2023-04-11T03:15:15.385Z,26.25
2023-04-11T03:17:42.196Z,24.80
2023-04-11T03:20:13.548Z,26.27
2023-04-11T03:22:45.317Z,22.07
2023-04-11T03:25:12.193Z,21.42
2023-04-11T03:27:39.141Z,24.33
2023-04-11T03:30:07.765Z,26.60
2023-04-11T03:32:46.126Z,24.98
2023-04-11T03:35:14.643Z,22.73
2023-04-11T03:37:45.320Z,24.30
2023-04-11T03:40:12.132Z,24.70
2023-04-11T03:42:42.818Z,24.52
2023-04-11T03:45:14.947Z,23.38
2023-04-11T03:47:41.989Z,24.50
2023-04-11T03:50:10.252Z,23.98
2023-04-11T03:52:42.601Z,24.33
2023-04-11T03:55:13.051Z,23.40
2023-04-11T03:57:39.554Z,25.10
2023-04-11T04:00:07.505Z,24.07
2023-04-11T04:02:41.807Z,22.15
2023-04-11T04:05:11.586Z,22.98
2023-04-11T04:07:39.763Z,23.52
2023-04-11T04:10:22.944Z,21.70
2023-04-11T04:12:53.457Z,25.00
2023-04-11T04:15:23.534Z,22.42
2023-04-11T04:17:51.462Z,22.02
2023-04-11T04:20:37.963Z,21.50
2023-04-11T04:23:04.839Z,20.50
2023-04-11T04:25:50.928Z,19.33
2023-04-11T04:28:22.565Z,18.40
2023-04-11T04:30:50.162Z,18.27
2023-04-11T04:33:18.677Z,22.02
2023-04-11T04:35:48.680Z,23.30
2023-04-11T04:38:18.019Z,25.40
2023-04-11T04:40:50.465Z,20.88
2023-04-11T04:43:22.302Z,21.92
2023-04-11T04:45:58.713Z,23.88
2023-04-11T04:48:35.227Z,19.00
2023-04-11T04:51:03.867Z,18.47
2023-04-11T04:53:30.629Z,20.98
2023-04-11T04:55:59.088Z,24.58
2023-04-11T04:58:27.939Z,21.73
2023-04-11T05:00:56.284Z,23.92
2023-04-11T05:03:27.213Z,22.43
2023-04-11T05:05:54.502Z,21.08
2023-04-11T05:08:21.429Z,20.83
2023-04-11T05:10:48.191Z,22.25
2023-04-11T05:13:15.877Z,26.15
2023-04-11T05:15:48.399Z,21.20
2023-04-11T05:18:15.566Z,20.85
2023-04-11T05:20:42.776Z,20.05
2023-04-11T05:23:12.559Z,17.25
2023-04-11T05:25:40.246Z,15.93
2023-04-11T05:28:09.796Z,19.23
2023-04-11T05:30:36.354Z,18.88
2023-04-11T05:33:03.114Z,21.15
2023-04-11T05:35:29.811Z,18.67
2023-04-11T05:37:58.201Z,18.90
2023-04-11T05:40:24.754Z,19.93
2023-04-11T05:42:51.293Z,18.35
2023-04-11T05:45:18.483Z,19.20
2023-04-11T05:47:45.166Z,18.00
2023-04-11T05:50:12.334Z,25.63
2023-04-11T05:52:38.875Z,19.00
2023-04-11T05:55:07.265Z,20.50
2023-04-11T05:57:33.790Z,19.33
2023-04-11T06:00:01.898Z,18.38
2023-04-11T06:02:39.955Z,17.15
2023-04-11T06:05:07.341Z,15.03
2023-04-11T06:07:35.847Z,16.50
2023-04-11T06:10:02.448Z,14.95
2023-04-11T06:12:29.002Z,12.07
2023-04-11T06:14:55.527Z,14.10
2023-04-11T06:17:22.137Z,15.10
2023-04-11T06:19:48.682Z,19.98
2023-04-11T06:22:15.249Z,16.05
2023-04-11T06:24:42.705Z,14.57
2023-04-11T06:27:12.175Z,12.43
2023-04-11T06:29:39.800Z,12.93
2023-04-11T06:32:07.311Z,12.40
2023-04-11T06:34:34.416Z,13.43
2023-04-11T06:37:00.955Z,14.18
2023-04-11T06:39:27.476Z,16.08
2023-04-11T06:41:53.998Z,15.30
2023-04-11T06:44:25.382Z,16.27
2023-04-11T06:46:52.291Z,15.57
2023-04-11T06:49:19.196Z,14.98
2023-04-11T06:51:51.851Z,16.02
2023-04-11T06:54:18.686Z,13.40
2023-04-11T06:56:47.309Z,19.42
2023-04-11T06:59:14.078Z,14.10
2023-04-11T07:01:40.649Z,14.02
2023-04-11T07:04:07.333Z,13.85
2023-04-11T07:06:37.817Z,14.63
2023-04-11T07:09:05.576Z,13.77
2023-04-11T07:11:33.076Z,15.25
2023-04-11T07:14:00.318Z,13.18
2023-04-11T07:16:27.180Z,12.95
2023-04-11T07:18:55.600Z,13.37
2023-04-11T07:21:22.224Z,13.48
2023-04-11T07:23:48.771Z,11.73
2023-04-11T07:26:16.895Z,12.23
2023-04-11T07:28:45.090Z,12.27
2023-04-11T07:31:12.322Z,9.03
2023-04-11T07:33:39.208Z,9.57
2023-04-11T07:36:06.676Z,11.75
2023-04-11T07:38:34.141Z,10.88
2023-04-11T07:41:02.374Z,10.70
2023-04-11T07:43:29.542Z,10.97
2023-04-11T07:45:57.588Z,10.23
2023-04-11T07:48:26.305Z,8.45
2023-04-11T07:50:54.086Z,10.63
2023-04-11T07:53:22.062Z,8.60
2023-04-11T07:55:48.664Z,8.63
2023-04-11T07:58:15.444Z,10.07
2023-04-11T08:00:42.033Z,8.98
2023-04-11T08:03:10.704Z,7.65
2023-04-11T08:05:37.694Z,9.02
2023-04-11T08:08:05.258Z,7.37
2023-04-11T08:10:32.450Z,7.65
2023-04-11T08:12:59.042Z,9.32
2023-04-11T08:15:26.442Z,8.07
2023-04-11T08:17:56.607Z,8.35
2023-04-11T08:20:24.539Z,11.97
2023-04-11T08:22:51.283Z,11.38
2023-04-11T08:25:22.890Z,11.35
2023-04-11T08:27:50.883Z,10.80
2023-04-11T08:30:17.775Z,12.15
2023-04-11T08:32:44.658Z,9.27
2023-04-11T08:35:11.330Z,7.68
2023-04-11T08:37:44.521Z,14.38
2023-04-11T08:40:11.617Z,14.98
2023-04-11T08:42:38.150Z,14.85
2023-04-11T08:45:08.326Z,14.60
2023-04-11T08:47:35.829Z,13.30
2023-04-11T08:50:02.780Z,16.80
2023-04-11T08:52:30.910Z,17.73
2023-04-11T08:54:57.446Z,16.85
2023-04-11T08:57:31.331Z,15.30
2023-04-11T09:00:00.762Z,18.73
2023-04-11T09:02:27.786Z,16.58
2023-04-11T09:04:55.032Z,17.65
2023-04-11T09:07:22.037Z,15.40
2023-04-11T09:09:48.560Z,15.07
2023-04-11T09:12:15.746Z,14.13
2023-04-11T09:14:42.333Z,14.00
2023-04-11T09:17:16.795Z,14.77
2023-04-11T09:19:43.370Z,17.42
2023-04-11T09:22:11.042Z,13.30
2023-04-11T09:24:37.779Z,17.57
2023-04-11T09:27:09.166Z,16.23
2023-04-11T09:29:45.437Z,14.63
2023-04-11T09:32:33.693Z,17.70
2023-04-11T09:35:18.438Z,17.13
2023-04-11T09:37:50.860Z,17.33
2023-04-11T09:40:19.613Z,14.20
2023-04-11T09:42:48.251Z,19.45
2023-04-11T09:45:22.826Z,16.20
2023-04-11T09:47:51.875Z,14.48
2023-04-11T09:50:19.496Z,13.37
2023-04-11T09:52:47.034Z,12.60
2023-04-11T09:55:16.314Z,13.02
2023-04-11T09:57:48.006Z,13.10
2023-04-11T10:00:18.429Z,13.77
2023-04-11T10:02:48.712Z,15.37
2023-04-11T10:05:18.378Z,15.32
2023-04-11T10:08:12.683Z,15.30
2023-04-11T10:10:42.771Z,15.35
2023-04-11T10:13:44.027Z,14.20
2023-04-11T10:16:16.081Z,15.17
2023-04-11T10:18:55.067Z,12.93
2023-04-11T10:21:32.760Z,11.95
2023-04-11T10:24:16.318Z,12.88
2023-04-11T10:26:54.948Z,13.73
2023-04-11T10:29:33.118Z,14.00
2023-04-11T10:32:15.530Z,12.10
2023-04-11T10:34:54.200Z,10.75
2023-04-11T10:37:29.779Z,9.23
2023-04-11T10:40:02.376Z,9.00
2023-04-11T10:42:31.501Z,10.33
2023-04-11T10:45:16.192Z,8.10
2023-04-11T10:47:42.909Z,7.90
2023-04-11T10:50:27.601Z,7.93
2023-04-11T10:53:06.775Z,7.93
2023-04-11T10:55:50.003Z,6.97
2023-04-11T10:58:22.173Z,7.60
2023-04-11T11:00:48.783Z,8.07
2023-04-11T11:03:16.586Z,7.07
2023-04-11T11:05:43.265Z,5.93
2023-04-11T11:08:10.165Z,4.47
2023-04-11T11:10:46.083Z,5.72
2023-04-11T11:13:15.501Z,4.32
2023-04-11T11:15:48.946Z,4.95
2023-04-11T11:18:16.606Z,5.03
2023-04-11T11:20:43.628Z,4.70
2023-04-11T11:23:11.547Z,4.00
2023-04-11T11:25:38.104Z,4.80
2023-04-11T11:28:07.394Z,4.55
2023-04-11T11:30:35.470Z,3.90
2023-04-11T11:33:15.997Z,3.10
2023-04-11T11:35:55.640Z,2.90
2023-04-11T11:38:25.455Z,4.25
2023-04-11T11:40:52.442Z,2.90
2023-04-11T11:43:21.302Z,3.05
2023-04-11T11:46:07.351Z,2.43
2023-04-11T11:48:35.256Z,3.97
2023-04-11T11:51:01.910Z,2.95
2023-04-11T11:53:28.554Z,3.72
2023-04-11T11:55:56.707Z,3.05
2023-04-11T11:58:25.252Z,2.43
2023-04-11T12:00:52.585Z,3.97
2023-04-11T12:03:25.242Z,4.05
2023-04-11T12:05:56.016Z,2.60
2023-04-11T12:08:24.330Z,4.85
2023-04-11T12:10:51.407Z,2.40
2023-04-11T12:13:23.291Z,3.10
2023-04-11T12:15:51.843Z,3.40
2023-04-11T12:18:26.205Z,2.15
2023-04-11T12:20:53.060Z,3.17
2023-04-11T12:23:20.769Z,3.20
2023-04-11T12:25:47.544Z,2.78
2023-04-11T12:28:16.317Z,3.58
2023-04-11T12:30:42.821Z,4.28
2023-04-11T12:33:09.402Z,4.43
2023-04-11T12:35:36.053Z,3.80
2023-04-11T12:38:02.699Z,5.65
2023-04-11T12:40:29.780Z,4.72
2023-04-11T12:42:57.540Z,5.05
2023-04-11T12:45:24.985Z,5.40
2023-04-11T12:47:52.078Z,5.33
2023-04-11T12:50:18.870Z,5.13
2023-04-11T12:52:45.417Z,6.45
2023-04-11T12:55:13.008Z,5.45
2023-04-11T12:57:39.789Z,6.43
2023-04-11T13:00:07.188Z,4.70
2023-04-11T13:02:42.157Z,4.53
2023-04-11T13:05:11.901Z,6.30
2023-04-11T13:07:39.167Z,5.22
2023-04-11T13:10:09.225Z,5.15
2023-04-11T13:12:44.433Z,5.30
2023-04-11T13:15:12.953Z,5.13
2023-04-11T13:17:39.766Z,4.88
2023-04-11T13:20:10.313Z,5.28
2023-04-11T13:22:38.429Z,4.05
2023-04-11T13:25:05.842Z,4.70
2023-04-11T13:27:32.728Z,4.97
2023-04-11T13:30:01.455Z,4.15
2023-04-11T13:32:28.110Z,6.18
2023-04-11T13:34:54.652Z,4.65
2023-04-11T13:37:22.018Z,4.63
2023-04-11T13:39:48.652Z,4.85
2023-04-11T13:42:15.156Z,3.67
2023-04-11T13:44:41.697Z,3.05
2023-04-11T13:47:08.304Z,3.63
2023-04-11T13:49:34.938Z,4.10
2023-04-11T13:52:01.593Z,4.32
2023-04-11T13:54:30.201Z,3.20
2023-04-11T13:56:56.880Z,2.97
2023-04-11T13:59:24.450Z,3.58
2023-04-11T14:01:51.021Z,4.60
2023-04-11T14:04:17.710Z,2.92
2023-04-11T14:06:45.699Z,5.57
2023-04-11T14:09:13.221Z,9.77
2023-04-11T14:11:41.032Z,5.63
2023-04-11T14:14:07.553Z,6.47
2023-04-11T14:16:34.164Z,7.10
2023-04-11T14:19:00.820Z,3.78
2023-04-11T14:21:28.763Z,4.15
2023-04-11T14:23:56.177Z,6.25
2023-04-11T14:26:23.067Z,3.77
2023-04-11T14:28:49.615Z,5.35
2023-04-11T14:31:16.312Z,5.40
2023-04-11T14:33:42.886Z,4.10
2023-04-11T14:36:09.640Z,2.90
2023-04-11T14:38:36.252Z,4.10
2023-04-11T14:41:02.965Z,4.18
2023-04-11T14:43:29.498Z,4.80
2023-04-11T14:45:57.631Z,3.47
2023-04-11T14:48:26.486Z,3.88
2023-04-11T14:50:54.717Z,3.17
2023-04-11T14:53:22.155Z,3.33
2023-04-11T14:55:48.657Z,3.83
2023-04-11T14:58:16.195Z,3.60
2023-04-11T15:00:42.810Z,5.43
2023-04-11T15:03:09.574Z,2.63
2023-04-11T15:05:36.585Z,3.22
2023-04-11T15:08:03.532Z,3.70
2023-04-11T15:10:30.607Z,3.75
2023-04-11T15:12:57.119Z,5.32
2023-04-11T15:15:23.846Z,4.03
2023-04-11T15:18:27.804Z,4.18
2023-04-11T15:20:56.312Z,3.85
2023-04-11T15:23:23.587Z,7.70
2023-04-11T15:25:57.384Z,3.78
2023-04-11T15:28:24.945Z,3.40
2023-04-11T15:30:53.491Z,6.00
2023-04-11T15:33:22.069Z,4.05
2023-04-11T15:35:48.651Z,3.45
2023-04-11T15:38:16.237Z,3.10
2023-04-11T15:40:43.306Z,4.17
2023-04-11T15:43:09.949Z,3.25
2023-04-11T15:45:37.860Z,3.40
2023-04-11T15:48:04.723Z,4.05
2023-04-11T15:50:31.963Z,4.00
2023-04-11T15:52:58.974Z,4.10
2023-04-11T15:55:25.589Z,3.33
2023-04-11T15:57:52.328Z,3.83
2023-04-11T16:00:22.042Z,4.57
2023-04-11T16:02:49.656Z,4.18
2023-04-11T16:05:17.019Z,7.23
2023-04-11T16:07:43.727Z,3.10
2023-04-11T16:10:10.537Z,3.65
2023-04-11T16:12:37.141Z,4.45
2023-04-11T16:15:05.540Z,5.43
2023-04-11T16:17:32.657Z,3.97
2023-04-11T16:19:59.612Z,3.83
2023-04-11T16:22:26.211Z,4.90
2023-04-11T16:24:52.812Z,3.67
2023-04-11T16:27:19.916Z,6.15
2023-04-11T16:29:46.557Z,4.27
2023-04-11T16:32:13.181Z,3.40
2023-04-11T16:34:40.019Z,4.28
2023-04-11T16:37:06.676Z,4.05
2023-04-11T16:39:33.221Z,4.72
2023-04-11T16:41:59.782Z,3.80
2023-04-11T16:44:26.386Z,4.18
2023-04-11T16:46:52.916Z,6.53
2023-04-11T16:49:19.540Z,5.88
2023-04-11T16:51:46.365Z,4.25
2023-04-11T16:54:13.650Z,3.13
2023-04-11T16:56:40.657Z,2.83
2023-04-11T16:59:07.426Z,4.03
2023-04-11T17:01:34.071Z,3.10
2023-04-11T17:04:01.417Z,3.58
2023-04-11T17:06:28.483Z,4.83
2023-04-11T17:08:57.025Z,4.20
2023-04-11T17:11:23.722Z,4.93
2023-04-11T17:13:50.848Z,4.75
2023-04-11T17:16:18.694Z,5.70
2023-04-11T17:18:45.383Z,5.00
2023-04-11T17:21:12.121Z,6.28
2023-04-11T17:23:42.300Z,5.15
2023-04-11T17:26:10.744Z,39.72
2023-04-11T17:28:38.613Z,18.05
2023-04-11T17:31:17.315Z,12.23
2023-04-11T17:33:44.603Z,16.17
2023-04-11T17:36:12.673Z,26.65
2023-04-11T17:38:40.772Z,52.35
2023-04-11T17:41:14.331Z,12.23
2023-04-11T17:43:41.396Z,7.57
2023-04-11T17:46:08.847Z,6.68
2023-04-11T17:48:36.111Z,4.97
2023-04-11T17:51:04.219Z,3.58
2023-04-11T17:53:31.131Z,5.20
2023-04-11T17:55:58.227Z,4.17
2023-04-11T17:58:24.837Z,2.75
2023-04-11T18:00:56.297Z,6.45
2023-04-11T18:03:25.358Z,2.55
2023-04-11T18:05:54.056Z,4.28
2023-04-11T18:08:26.626Z,3.87
2023-04-11T18:11:00.121Z,6.38
2023-04-11T18:13:27.472Z,6.43
2023-04-11T18:15:54.277Z,3.67
2023-04-11T18:18:21.026Z,3.13
2023-04-11T18:20:47.924Z,3.73
2023-04-11T18:23:14.520Z,7.20
2023-04-11T18:25:41.047Z,7.10
2023-04-11T18:28:07.763Z,6.50
2023-04-11T18:30:34.330Z,5.35
2023-04-11T18:33:00.896Z,4.87
2023-04-11T18:35:28.605Z,3.92
2023-04-11T18:37:55.804Z,4.82
2023-04-11T18:40:22.595Z,4.13
2023-04-11T18:42:52.499Z,3.92
2023-04-11T18:45:22.661Z,4.83
2023-04-11T18:47:49.910Z,5.22
2023-04-11T18:50:17.372Z,3.03
2023-04-11T18:52:45.664Z,4.45
2023-04-11T18:55:13.012Z,4.07
2023-04-11T18:57:39.990Z,3.20
2023-04-11T19:00:26.065Z,3.13
2023-04-11T19:02:53.125Z,3.97
2023-04-11T19:05:25.059Z,4.25
2023-04-11T19:07:54.217Z,3.30
2023-04-11T19:10:21.230Z,3.33
2023-04-11T19:12:48.745Z,4.63
2023-04-11T19:15:16.272Z,5.32
2023-04-11T19:17:43.901Z,4.10
2023-04-11T19:20:12.819Z,4.00
2023-04-11T19:22:40.780Z,4.37
2023-04-11T19:25:10.444Z,4.05
2023-04-11T19:27:40.207Z,6.85
2023-04-11T19:30:08.675Z,3.25
2023-04-11T19:32:38.455Z,5.85
2023-04-11T19:35:08.521Z,5.57
2023-04-11T19:37:36.123Z,2.42
2023-04-11T19:40:07.386Z,4.57
2023-04-11T19:42:36.866Z,3.30
2023-04-11T19:45:04.807Z,3.55
2023-04-11T19:47:32.724Z,3.77
2023-04-11T19:50:00.697Z,4.03
2023-04-11T19:52:28.066Z,3.33
2023-04-11T19:54:56.820Z,4.68
2023-04-11T19:57:27.758Z,4.15
2023-04-11T19:59:54.441Z,5.10
2023-04-11T20:02:21.324Z,7.55
2023-04-11T20:04:48.054Z,10.23
2023-04-11T20:07:14.600Z,9.25
2023-04-11T20:09:43.174Z,5.00
2023-04-11T20:12:09.787Z,4.37
2023-04-11T20:15:01.048Z,4.80
2023-04-11T20:17:53.651Z,4.97
2023-04-11T20:20:20.640Z,4.60
2023-04-11T20:22:47.996Z,7.05
2023-04-11T20:25:14.697Z,4.20
2023-04-11T20:28:07.275Z,3.10
2023-04-11T20:30:34.043Z,6.32
2023-04-11T20:33:01.540Z,4.85
2023-04-11T20:35:28.206Z,4.80
2023-04-11T20:37:56.007Z,4.73
2023-04-11T20:40:23.743Z,6.10
2023-04-11T20:42:50.274Z,5.80
2023-04-11T20:45:21.808Z,4.60
2023-04-11T20:47:50.163Z,5.88
2023-04-11T20:50:19.776Z,5.27
2023-04-11T20:52:47.755Z,3.72
2023-04-11T20:55:14.478Z,5.18
2023-04-11T20:57:42.080Z,4.82
2023-04-11T21:00:16.498Z,7.57
2023-04-11T21:02:45.826Z,5.73
2023-04-11T21:05:13.792Z,4.90
2023-04-11T21:07:41.938Z,4.82
2023-04-11T21:10:09.449Z,5.07
2023-04-11T21:12:36.817Z,5.55
2023-04-11T21:15:05.858Z,3.67
2023-04-11T21:17:34.643Z,6.50
2023-04-11T21:20:10.032Z,5.93
2023-04-11T21:22:40.132Z,4.78
2023-04-11T21:25:07.350Z,4.57
2023-04-11T21:27:33.997Z,6.03
2023-04-11T21:30:00.603Z,4.95
2023-04-11T21:32:28.187Z,4.28
2023-04-11T21:34:54.802Z,6.25
2023-04-11T21:37:21.331Z,4.55
2023-04-11T21:39:47.859Z,4.13
2023-04-11T21:42:14.421Z,4.10
2023-04-11T21:44:40.978Z,5.18
2023-04-11T21:47:08.511Z,5.10
2023-04-11T21:49:36.135Z,5.07
2023-04-11T21:52:02.682Z,3.93
2023-04-11T21:54:29.303Z,5.20
2023-04-11T21:56:57.249Z,4.80
2023-04-11T21:59:23.791Z,4.18
2023-04-11T22:01:50.793Z,4.50
2023-04-11T22:04:18.632Z,5.07
2023-04-11T22:06:47.959Z,3.15
2023-04-11T22:09:20.336Z,4.50
2023-04-11T22:11:46.934Z,3.20
2023-04-11T22:14:16.261Z,3.50
2023-04-11T22:16:49.066Z,7.23
2023-04-11T22:19:20.854Z,4.93
2023-04-11T22:21:55.718Z,5.10
2023-04-11T22:24:30.160Z,4.75
2023-04-11T22:26:58.204Z,4.28
2023-04-11T22:29:30.298Z,5.20
2023-04-11T22:32:00.870Z,3.63
2023-04-11T22:34:28.268Z,3.95
2023-04-11T22:36:54.813Z,5.72
2023-04-11T22:39:22.007Z,8.45
2023-04-11T22:41:50.524Z,6.07
2023-04-11T22:44:18.479Z,15.85
2023-04-11T22:47:06.599Z,12.88
2023-04-11T22:49:40.562Z,11.02
2023-04-11T22:52:14.781Z,11.05
2023-04-11T22:54:42.453Z,10.87
2023-04-11T22:57:09.178Z,12.05
2023-04-11T22:59:36.826Z,10.60
2023-04-11T23:02:03.579Z,13.55
2023-04-11T23:04:31.973Z,13.57
2023-04-11T23:06:59.022Z,8.80
2023-04-11T23:09:26.367Z,12.10
2023-04-11T23:11:55.044Z,7.70
2023-04-11T23:14:22.245Z,9.52
2023-04-11T23:16:49.938Z,8.65
2023-04-11T23:19:18.507Z,12.80
2023-04-11T23:21:45.131Z,11.52
2023-04-11T23:24:11.628Z,6.65
2023-04-11T23:26:39.143Z,6.65
2023-04-11T23:29:05.681Z,5.45
2023-04-11T23:31:32.650Z,5.80
2023-04-11T23:34:00.418Z,6.15
2023-04-11T23:36:28.039Z,4.75
2023-04-11T23:38:54.989Z,6.75
2023-04-11T23:41:21.617Z,7.78
2023-04-11T23:43:48.142Z,4.97
2023-04-11T23:46:16.721Z,5.60
2023-04-11T23:48:43.718Z,3.90
2023-04-11T23:51:10.794Z,5.78
2023-04-11T23:53:37.324Z,7.82
2023-04-11T23:56:04.127Z,8.50
2023-04-11T23:58:30.853Z,7.65
